Time;durP1;ratioP1;P1;durP2;ratioP2;P2;SDS_P1;SDS_P2;PMS_P1;PMS_P2;Temp;Humidity;BMP_temperature;BMP_pressure;BME280_temperature;BME280_humidity;BME280_pressure;Samples;Min_cycle;Max_cycle;Signal;HPM_P1;HPM_P2
2023/12/08 00:00:45;;;;;;;19.27;11.00;;;-2.90;99.90;;;;;;5062980;28;20028;-71
2023/12/08 00:03:12;;;;;;;15.35;9.57;;;-2.90;99.90;;;;;;5062098;28;20039;-71
2023/12/08 00:05:38;;;;;;;18.33;10.55;;;-2.80;99.90;;;;;;5062488;28;21210;-71
2023/12/08 00:08:04;;;;;;;21.75;11.82;;;-2.80;99.90;;;;;;5066559;28;20040;-71
2023/12/08 00:10:29;;;;;;;17.15;10.05;;;-2.70;99.90;;;;;;5053181;28;20489;-72
2023/12/08 00:12:55;;;;;;;19.58;10.10;;;-2.70;99.90;;;;;;5067397;28;20096;-71
2023/12/08 00:15:21;;;;;;;22.23;11.82;;;-2.70;99.90;;;;;;5063145;28;20016;-71
2023/12/08 00:17:46;;;;;;;16.20;10.68;;;-2.70;99.90;;;;;;5064929;28;20051;-70
2023/12/08 00:20:12;;;;;;;15.32;10.02;;;-2.80;99.90;;;;;;5056423;28;20032;-69
2023/12/08 00:22:38;;;;;;;17.05;11.10;;;-2.90;99.90;;;;;;5066848;28;20517;-71
2023/12/08 00:25:04;;;;;;;23.08;11.73;;;-2.80;99.90;;;;;;5060063;28;20039;-71
2023/12/08 00:27:30;;;;;;;20.00;11.35;;;-2.80;99.90;;;;;;5065946;28;20028;-71
2023/12/08 00:29:55;;;;;;;18.52;12.10;;;-2.90;99.90;;;;;;5063582;28;20034;-71
2023/12/08 00:32:21;;;;;;;19.27;11.38;;;-2.90;99.90;;;;;;5048487;28;20102;-71
2023/12/08 00:34:47;;;;;;;18.88;11.45;;;-2.90;99.90;;;;;;5059189;28;20119;-71
2023/12/08 00:37:13;;;;;;;20.92;10.80;;;-2.80;99.90;;;;;;5063083;28;20107;-71
2023/12/08 00:39:39;;;;;;;17.15;12.25;;;-2.80;99.90;;;;;;5062504;28;20557;-71
2023/12/08 00:42:05;;;;;;;24.63;12.05;;;-3.00;99.90;;;;;;5060874;28;20478;-71
2023/12/08 00:44:30;;;;;;;14.95;11.93;;;-3.00;99.90;;;;;;5063206;28;20031;-72
2023/12/08 00:46:56;;;;;;;23.73;11.05;;;-2.90;99.90;;;;;;5063866;28;20065;-70
2023/12/08 00:49:22;;;;;;;15.93;10.27;;;-2.80;99.90;;;;;;5060026;28;20389;-71
2023/12/08 00:51:47;;;;;;;15.52;10.80;;;-2.80;99.90;;;;;;5053345;28;20516;-71
2023/12/08 00:54:16;;;;;;;21.15;10.18;;;-2.70;99.90;;;;;;5065325;28;20062;-71
2023/12/08 00:56:41;;;;;;;;;;;-2.70;99.90;;;;;;5062347;28;20020;-71
2023/12/08 00:59:07;;;;;;;17.02;10.77;;;-2.60;99.90;;;;;;5062534;28;19927;-71
2023/12/08 01:01:33;;;;;;;20.48;10.35;;;-2.60;99.90;;;;;;5057067;28;20052;-71
2023/12/08 01:03:58;;;;;;;18.45;11.00;;;-2.70;99.90;;;;;;5058762;28;20059;-71
2023/12/08 01:06:24;;;;;;;15.13;10.27;;;-2.60;99.90;;;;;;5051989;28;20105;-71
2023/12/08 01:08:49;;;;;;;14.27;9.55;;;-2.60;99.90;;;;;;5062224;28;20440;-71
2023/12/08 01:11:15;;;;;;;18.90;10.48;;;-2.60;99.90;;;;;;5060415;28;20031;-72
2023/12/08 01:13:41;;;;;;;18.45;9.40;;;-2.60;99.90;;;;;;5056903;28;20082;-71
2023/12/08 01:16:07;;;;;;;17.55;11.15;;;-2.60;99.90;;;;;;5058766;28;20052;-71
2023/12/08 01:18:33;;;;;;;17.13;9.02;;;-2.60;99.90;;;;;;5043696;28;20020;-71
2023/12/08 01:20:59;;;;;;;15.13;11.18;;;-2.60;99.90;;;;;;5045037;28;20029;-71
2023/12/08 01:23:24;;;;;;;16.35;9.77;;;-2.60;99.90;;;;;;5055831;28;20040;-70
2023/12/08 01:25:51;;;;;;;17.17;10.02;;;-2.60;99.90;;;;;;5058927;28;20386;-71
2023/12/08 01:28:17;;;;;;;17.20;9.85;;;-2.60;99.90;;;;;;5062524;28;20029;-71
2023/12/08 01:30:43;;;;;;;19.00;10.73;;;-2.60;99.90;;;;;;5054439;28;20429;-71
2023/12/08 01:33:08;;;;;;;18.48;11.00;;;-2.70;99.90;;;;;;5045483;28;20491;-71
2023/12/08 01:35:34;;;;;;;19.08;11.48;;;-2.70;99.90;;;;;;5055650;28;20028;-71
2023/12/08 01:38:00;;;;;;;16.67;8.90;;;-2.60;99.90;;;;;;5060196;28;20033;-71
2023/12/08 01:40:25;;;;;;;15.80;10.27;;;-2.50;99.90;;;;;;5058067;28;20141;-71
2023/12/08 01:42:51;;;;;;;18.73;10.80;;;-2.60;99.90;;;;;;5059925;28;20021;-71
2023/12/08 01:45:17;;;;;;;13.15;7.80;;;-2.50;99.90;;;;;;5055228;28;20166;-71
2023/12/08 01:47:43;;;;;;;18.02;11.88;;;-2.50;99.90;;;;;;5053063;28;20040;-71
2023/12/08 01:50:10;;;;;;;20.77;12.00;;;-2.60;99.90;;;;;;5045222;28;20035;-71
2023/12/08 01:52:36;;;;;;;17.02;10.95;;;-2.50;99.90;;;;;;5045402;28;20181;-71
2023/12/08 01:55:02;;;;;;;22.55;11.70;;;-2.60;99.90;;;;;;5047874;28;20098;-71
2023/12/08 01:57:28;;;;;;;16.35;10.95;;;-2.70;99.90;;;;;;5063254;28;20082;-72
2023/12/08 01:59:55;;;;;;;21.23;11.40;;;-2.70;99.90;;;;;;5060921;28;20036;-71
2023/12/08 02:02:21;;;;;;;15.70;11.40;;;-2.70;99.90;;;;;;5053443;28;20522;-71
2023/12/08 02:04:49;;;;;;;18.90;10.65;;;-2.70;99.90;;;;;;5059889;28;20077;-71
2023/12/08 02:07:15;;;;;;;15.07;10.15;;;-2.60;99.90;;;;;;5065255;28;20040;-71
2023/12/08 02:09:41;;;;;;;18.17;9.48;;;-2.60;99.90;;;;;;5063121;28;20032;-71
2023/12/08 02:12:09;;;;;;;19.88;10.43;;;-2.60;99.90;;;;;;5047655;28;20017;-71
2023/12/08 02:14:35;;;;;;;13.57;8.90;;;-2.60;99.90;;;;;;5057174;28;20016;-72
2023/12/08 02:17:16;;;;;;;15.98;9.07;;;-2.50;99.90;;;;;;5052433;28;20090;-70
2023/12/08 02:19:43;;;;;;;15.40;10.50;;;-2.50;99.90;;;;;;5061460;28;20477;-72
2023/12/08 02:22:09;;;;;;;16.92;9.05;;;-2.50;99.90;;;;;;5065165;28;20071;-71
2023/12/08 02:24:35;;;;;;;15.63;10.20;;;-2.50;99.90;;;;;;5046878;28;20060;-71
2023/12/08 02:27:01;;;;;;;17.42;9.73;;;-2.50;99.90;;;;;;5060601;28;20040;-73
2023/12/08 02:29:27;;;;;;;20.70;9.45;;;-2.60;99.90;;;;;;5061111;28;20429;-71
2023/12/08 02:32:25;;;;;;;18.83;10.60;;;-2.60;99.90;;;;;;5051211;28;20043;-71
2023/12/08 02:34:52;;;;;;;18.70;10.88;;;-2.50;99.90;;;;;;5061474;28;20028;-71
2023/12/08 02:37:20;;;;;;;22.15;12.45;;;-2.60;99.90;;;;;;5058125;28;20037;-71
2023/12/08 02:39:48;;;;;;;21.57;11.47;;;-2.70;99.90;;;;;;5057578;28;20111;-71
2023/12/08 02:42:14;;;;;;;23.92;12.13;;;-2.80;99.90;;;;;;5054230;28;20344;-70
2023/12/08 02:44:40;;;;;;;20.90;12.73;;;-2.90;99.90;;;;;;5063154;28;20039;-71
2023/12/08 02:47:06;;;;;;;16.02;9.48;;;-2.80;99.90;;;;;;5061130;28;20091;-71
2023/12/08 02:49:34;;;;;;;21.75;11.77;;;-2.80;99.90;;;;;;5042681;28;20453;-71
2023/12/08 02:52:00;;;;;;;21.05;11.63;;;-2.80;99.90;;;;;;5051530;28;20035;-71
2023/12/08 02:54:25;;;;;;;13.68;10.18;;;-2.80;99.90;;;;;;5041575;28;20487;-71
2023/12/08 02:56:51;;;;;;;11.27;7.88;;;-2.80;99.90;;;;;;5055979;28;20040;-71
2023/12/08 02:59:17;;;;;;;16.85;9.90;;;-2.70;99.90;;;;;;5065438;28;20025;-71
2023/12/08 03:01:42;;;;;;;13.73;9.13;;;-2.60;99.90;;;;;;5056609;28;20036;-71
2023/12/08 03:04:08;;;;;;;14.52;9.43;;;-2.60;99.90;;;;;;5061308;28;20017;-73
2023/12/08 03:06:33;;;;;;;17.05;9.38;;;-2.60;99.90;;;;;;5059419;28;20028;-73
2023/12/08 03:08:59;;;;;;;21.58;11.02;;;-2.60;99.90;;;;;;5043343;28;20025;-72
2023/12/08 03:11:25;;;;;;;17.75;9.07;;;-2.60;99.90;;;;;;5063390;28;20033;-71
2023/12/08 03:13:50;;;;;;;14.60;8.68;;;-2.60;99.90;;;;;;5054900;28;20025;-72
2023/12/08 03:16:16;;;;;;;13.32;7.95;;;-2.50;99.90;;;;;;5062553;28;20048;-72
2023/12/08 03:18:41;;;;;;;15.45;9.05;;;-2.50;99.90;;;;;;5062644;28;20028;-72
2023/12/08 03:21:07;;;;;;;17.70;8.52;;;-2.50;99.90;;;;;;5049786;28;20029;-72
2023/12/08 03:23:34;;;;;;;16.85;9.25;;;-2.40;99.90;;;;;;5062720;28;20517;-72
2023/12/08 03:26:00;;;;;;;14.60;8.00;;;-2.40;99.90;;;;;;5049523;28;20035;-73
2023/12/08 03:28:25;;;;;;;9.02;7.07;;;-2.40;99.90;;;;;;5059920;28;20487;-73
2023/12/08 03:30:54;;;;;;;13.93;8.40;;;-2.40;99.90;;;;;;5062876;28;20045;-73
2023/12/08 03:33:20;;;;;;;14.73;9.13;;;-2.30;99.90;;;;;;5066950;28;20409;-73
2023/12/08 03:35:52;;;;;;;14.30;8.57;;;-2.40;99.90;;;;;;5062993;28;20036;-72
2023/12/08 03:38:18;;;;;;;11.30;7.70;;;-2.40;99.90;;;;;;5056782;28;20029;-72
2023/12/08 03:40:43;;;;;;;11.55;8.35;;;-2.40;99.90;;;;;;5042575;28;20033;-72
2023/12/08 03:43:09;;;;;;;13.80;9.40;;;-2.40;99.90;;;;;;5049986;28;20099;-71
2023/12/08 03:45:35;;;;;;;12.55;8.60;;;-2.40;99.90;;;;;;5065267;28;20082;-72
2023/12/08 03:48:00;;;;;;;14.32;9.23;;;-2.40;99.90;;;;;;5068091;28;20393;-73
2023/12/08 03:50:26;;;;;;;13.00;8.32;;;-2.40;99.90;;;;;;5040873;28;20039;-72
2023/12/08 03:52:54;;;;;;;11.02;7.82;;;-2.40;99.90;;;;;;5051054;28;20044;-72
2023/12/08 03:55:21;;;;;;;5.75;4.55;;;-2.40;99.90;;;;;;5060941;28;20021;-73
2023/12/08 03:57:48;;;;;;;9.48;6.45;;;-2.30;99.90;;;;;;5058757;28;20047;-72
2023/12/08 04:00:15;;;;;;;4.63;4.22;;;-2.30;99.90;;;;;;5065413;28;20564;-72
2023/12/08 04:02:43;;;;;;;10.57;8.05;;;-2.20;99.90;;;;;;5059464;28;20375;-73
2023/12/08 04:05:11;;;;;;;7.53;5.93;;;-2.20;99.90;;;;;;5065089;28;20031;-73
2023/12/08 04:07:41;;;;;;;9.20;6.40;;;-2.20;99.90;;;;;;5056320;28;20078;-73
2023/12/08 04:10:10;;;;;;;11.50;6.95;;;-2.20;99.90;;;;;;5059470;28;20061;-73
2023/12/08 04:12:38;;;;;;;14.35;9.65;;;-2.10;99.90;;;;;;5063377;28;20040;-73
2023/12/08 04:15:04;;;;;;;9.38;7.20;;;-2.10;99.90;;;;;;5057833;28;20365;-74
2023/12/08 04:17:30;;;;;;;4.55;3.67;;;-2.10;99.90;;;;;;5037893;28;20486;-73
2023/12/08 04:19:56;;;;;;;19.25;8.77;;;-2.10;99.90;;;;;;5038636;28;20024;-72
2023/12/08 04:22:26;;;;;;;5.38;4.07;;;-2.00;99.90;;;;;;5046439;28;20400;-72
2023/12/08 04:24:52;;;;;;;14.20;7.97;;;-2.00;99.90;;;;;;5045840;28;20042;-73
2023/12/08 04:27:20;;;;;;;9.25;7.43;;;-2.00;99.90;;;;;;5051327;28;20032;-71
2023/12/08 04:29:46;;;;;;;12.82;8.93;;;-2.00;99.90;;;;;;5048164;28;20024;-70
2023/12/08 04:32:29;;;;;;;14.13;8.38;;;-2.00;99.90;;;;;;5059612;28;20036;-70
2023/12/08 04:34:54;;;;;;;10.25;8.43;;;-2.00;99.90;;;;;;5040650;28;20025;-73
2023/12/08 04:37:20;;;;;;;11.82;7.15;;;-2.00;99.90;;;;;;5064096;28;20029;-71
2023/12/08 04:39:47;;;;;;;13.30;8.32;;;-2.00;99.90;;;;;;5057784;28;20059;-71
2023/12/08 04:42:19;;;;;;;10.88;6.80;;;-2.00;99.90;;;;;;5052612;28;20020;-72
2023/12/08 04:44:45;;;;;;;15.35;8.52;;;-2.00;99.90;;;;;;5056877;28;20028;-71
2023/12/08 04:47:14;;;;;;;10.95;6.72;;;-2.00;99.90;;;;;;5062582;28;20431;-71
2023/12/08 04:49:42;;;;;;;15.05;8.00;;;-2.00;99.90;;;;;;5055376;28;20021;-71
2023/12/08 04:52:11;;;;;;;9.95;7.25;;;-2.00;99.90;;;;;;5057262;28;20029;-71
2023/12/08 04:54:37;;;;;;;15.40;9.00;;;-1.90;99.90;;;;;;5061529;28;20390;-71
2023/12/08 04:57:07;;;;;;;11.63;7.78;;;-1.90;99.90;;;;;;5061183;28;20027;-72
2023/12/08 04:59:33;;;;;;;14.45;8.63;;;-1.80;99.90;;;;;;5042396;28;20044;-71
2023/12/08 05:01:59;;;;;;;14.70;7.90;;;-1.90;99.90;;;;;;5047466;28;20086;-70
2023/12/08 05:04:31;;;;;;;11.10;7.63;;;-1.90;99.90;;;;;;5059031;28;20017;-71
2023/12/08 05:06:58;;;;;;;14.50;7.75;;;-1.80;99.90;;;;;;5052795;28;20111;-71
2023/12/08 05:09:45;;;;;;;17.45;8.88;;;-1.80;99.90;;;;;;5047838;28;20456;-71
2023/12/08 05:12:19;;;;;;;17.02;9.25;;;-1.80;99.90;;;;;;5058122;28;20037;-70
2023/12/08 05:14:45;;;;;;;12.88;8.95;;;-1.70;99.90;;;;;;5047663;28;20071;-71
2023/12/08 05:17:10;;;;;;;14.93;8.50;;;-1.90;99.90;;;;;;5049009;28;20552;-70
2023/12/08 05:19:39;;;;;;;11.13;8.07;;;-1.80;99.90;;;;;;5059013;28;20021;-70
2023/12/08 05:22:05;;;;;;;12.45;7.50;;;-1.80;99.90;;;;;;5060406;28;20052;-70
2023/12/08 05:24:31;;;;;;;9.00;6.57;;;-1.80;99.90;;;;;;5055996;28;20021;-71
2023/12/08 05:27:00;;;;;;;16.00;8.15;;;-1.70;99.90;;;;;;5044527;28;20061;-71
2023/12/08 05:29:29;;;;;;;10.05;8.13;;;-1.70;99.90;;;;;;5046171;28;20035;-71
2023/12/08 05:31:54;;;;;;;13.48;7.75;;;-1.70;99.90;;;;;;5041451;28;20121;-72
2023/12/08 05:34:23;;;;;;;14.10;8.52;;;-1.80;99.90;;;;;;5060712;28;20032;-71
2023/12/08 05:36:48;;;;;;;13.02;8.23;;;-1.70;99.90;;;;;;5059010;28;20033;-71
2023/12/08 05:39:18;;;;;;;10.00;8.15;;;-1.70;99.90;;;;;;5045377;28;20032;-71
2023/12/08 05:41:44;;;;;;;18.83;9.90;;;-1.60;99.90;;;;;;5052732;28;20029;-72
2023/12/08 05:44:14;;;;;;;14.38;8.27;;;-1.70;99.90;;;;;;5062550;28;20756;-72
2023/12/08 05:46:40;;;;;;;11.70;8.43;;;-1.60;99.90;;;;;;5060706;28;20146;-72
2023/12/08 05:49:06;;;;;;;7.82;5.80;;;-1.60;99.90;;;;;;5043892;28;20553;-72
2023/12/08 05:51:32;;;;;;;16.05;8.25;;;-1.70;99.90;;;;;;5043236;28;20025;-72
2023/12/08 05:53:58;;;;;;;11.43;8.55;;;-1.70;99.90;;;;;;5068918;28;20024;-73
2023/12/08 05:56:24;;;;;;;12.88;8.13;;;-1.70;99.90;;;;;;5065460;28;20184;-72
2023/12/08 05:58:50;;;;;;;10.55;8.05;;;-1.70;99.90;;;;;;5059185;28;20095;-72
2023/12/08 06:01:16;;;;;;;14.55;8.82;;;-1.70;99.90;;;;;;5061314;28;20021;-72
2023/12/08 06:03:44;;;;;;;17.98;9.77;;;-1.70;99.90;;;;;;5052619;28;20433;-72
2023/12/08 06:06:11;;;;;;;13.20;8.68;;;-1.60;99.90;;;;;;5067841;28;20040;-72
2023/12/08 06:08:37;;;;;;;11.82;8.35;;;-1.60;99.90;;;;;;5053042;28;20021;-74
2023/12/08 06:11:09;;;;;;;16.27;8.43;;;-1.70;99.90;;;;;;5053531;28;20493;-73
2023/12/08 06:13:35;;;;;;;11.02;8.63;;;-1.80;99.90;;;;;;5037728;28;20025;-72
2023/12/08 06:16:03;;;;;;;12.88;8.68;;;-1.80;99.90;;;;;;5064102;28;20103;-72
2023/12/08 06:18:30;;;;;;;14.60;8.93;;;-1.80;99.90;;;;;;5063622;28;20469;-73
2023/12/08 06:20:58;;;;;;;10.30;8.20;;;-1.80;99.90;;;;;;5045133;28;20029;-72
2023/12/08 06:23:27;;;;;;;11.75;7.82;;;-1.80;99.90;;;;;;5064338;28;20286;-71
2023/12/08 06:25:53;;;;;;;13.30;8.45;;;-1.80;99.90;;;;;;5063760;28;20032;-71
2023/12/08 06:28:22;;;;;;;12.27;8.35;;;-1.80;99.90;;;;;;5065771;28;20397;-71
2023/12/08 06:30:47;;;;;;;11.00;6.80;;;-1.70;99.90;;;;;;5047062;28;20047;-71
2023/12/08 06:33:13;;;;;;;12.82;7.65;;;-1.60;99.90;;;;;;5066568;28;20033;-71
2023/12/08 06:35:42;;;;;;;14.93;9.68;;;-1.70;99.90;;;;;;5061211;28;20492;-72
2023/12/08 06:38:10;;;;;;;13.63;8.75;;;-1.70;99.90;;;;;;5050791;28;20543;-72
2023/12/08 06:40:41;;;;;;;15.02;8.90;;;-1.70;99.90;;;;;;5062782;28;20020;-72
2023/12/08 06:43:06;;;;;;;13.65;8.85;;;-1.70;99.90;;;;;;5061726;28;20024;-72
2023/12/08 06:45:32;;;;;;;10.05;8.18;;;-1.80;99.90;;;;;;5066703;28;20021;-72
2023/12/08 06:48:01;;;;;;;12.80;8.80;;;-1.70;99.90;;;;;;5060452;28;20430;-72
2023/12/08 06:50:30;;;;;;;;;;;-1.70;99.90;;;;;;5053877;28;20362;-72
2023/12/08 06:52:59;;;;;;;11.82;7.03;;;-1.70;99.90;;;;;;5067377;28;19916;-72
2023/12/08 06:55:25;;;;;;;11.73;8.48;;;-1.70;99.90;;;;;;5071104;28;20466;-73
2023/12/08 06:57:51;;;;;;;13.27;9.68;;;-1.60;99.90;;;;;;5071291;28;20021;-73
2023/12/08 07:00:19;;;;;;;17.83;10.25;;;-1.60;99.90;;;;;;5053227;28;20023;-73
2023/12/08 07:02:45;;;;;;;;;;;-1.60;99.90;;;;;;5064080;28;20097;-73
2023/12/08 07:05:11;;;;;;;13.23;7.95;;;-1.60;99.90;;;;;;5067080;28;20346;-73
2023/12/08 07:07:40;;;;;;;11.63;7.60;;;-1.50;99.90;;;;;;5051356;28;20024;-73
2023/12/08 07:10:06;;;;;;;10.68;7.30;;;-1.50;99.90;;;;;;5071806;28;20081;-73
2023/12/08 07:12:33;;;;;;;14.75;9.13;;;-1.50;99.90;;;;;;5056153;28;20055;-73
2023/12/08 07:15:01;;;;;;;11.13;9.00;;;-1.50;99.90;;;;;;5053835;28;20032;-73
2023/12/08 07:17:29;;;;;;;;;;;-1.50;99.90;;;;;;5059634;28;20500;-73
2023/12/08 07:20:06;;;;;;;12.93;7.78;;;-1.50;99.90;;;;;;5063353;28;19908;-73
2023/12/08 07:22:32;;;;;;;12.57;9.55;;;-1.40;99.90;;;;;;5053342;28;20072;-73
2023/12/08 07:25:09;;;;;;;14.00;9.05;;;-1.50;99.90;;;;;;5057840;28;21239;-74
2023/12/08 07:27:35;;;;;;;14.07;8.55;;;-1.50;99.90;;;;;;5061645;28;20587;-73
2023/12/08 07:30:03;;;;;;;13.45;8.40;;;-1.50;99.90;;;;;;5071835;28;20100;-73
2023/12/08 07:32:30;;;;;;;14.35;9.05;;;-1.50;99.90;;;;;;5064536;28;20029;-73
2023/12/08 07:34:59;;;;;;;13.80;8.95;;;-1.50;99.90;;;;;;5052405;28;20115;-73
2023/12/08 07:37:28;;;;;;;14.60;8.77;;;-1.50;99.90;;;;;;5063626;28;20020;-73
2023/12/08 07:39:53;;;;;;;13.20;8.50;;;-1.60;99.90;;;;;;5054372;28;20039;-73
2023/12/08 11:28:56;;;;;;;10.98;9.27;;;1.20;99.90;;;;;;5026327;28;20116;-73
2023/12/08 11:31:59;;;;;;;19.77;11.73;;;1.10;99.90;;;;;;5019798;28;20409;-73
2023/12/08 11:34:52;;;;;;;22.50;12.95;;;1.10;99.90;;;;;;5010077;28;20033;-73
2023/12/08 11:37:18;;;;;;;19.38;11.13;;;1.20;99.90;;;;;;5014336;28;20029;-73
2023/12/08 11:39:44;;;;;;;20.75;12.00;;;1.20;99.90;;;;;;5015690;28;20029;-73
2023/12/08 11:42:18;;;;;;;19.20;11.80;;;1.20;99.90;;;;;;5021132;28;20021;-73
2023/12/08 11:44:45;;;;;;;22.95;13.45;;;1.20;99.90;;;;;;5003642;28;20576;-74
2023/12/08 11:47:15;;;;;;;20.30;11.57;;;1.20;99.90;;;;;;5024816;28;20387;-73
2023/12/08 11:49:48;;;;;;;18.45;11.18;;;1.30;99.90;;;;;;5010870;28;20116;-73
2023/12/08 11:52:28;;;;;;;18.77;11.95;;;1.30;99.90;;;;;;5031654;28;20037;-73
2023/12/08 11:55:16;;;;;;;32.08;14.15;;;1.30;99.90;;;;;;5026285;28;20424;-74
2023/12/08 11:58:03;;;;;;;20.53;13.33;;;1.40;99.90;;;;;;5009336;28;20029;-74
2023/12/08 12:00:34;;;;;;;24.95;14.18;;;1.40;99.90;;;;;;5028335;28;20066;-74
2023/12/08 12:03:01;;;;;;;26.48;13.20;;;1.40;99.90;;;;;;5009966;28;20389;-73
2023/12/08 12:05:27;;;;;;;21.75;12.32;;;1.50;99.90;;;;;;5010424;28;20509;-74
2023/12/08 12:08:00;;;;;;;20.73;12.43;;;1.50;99.90;;;;;;5023128;28;20025;-74
2023/12/08 12:10:33;;;;;;;17.25;10.93;;;1.60;99.90;;;;;;5012671;28;20026;-75
2023/12/08 12:13:37;;;;;;;18.27;11.98;;;1.60;99.90;;;;;;5022066;28;20014;-73
2023/12/08 12:16:11;;;;;;;19.90;10.32;;;1.70;99.90;;;;;;5024302;28;20033;-74
2023/12/08 12:18:41;;;;;;;18.70;11.40;;;1.80;99.90;;;;;;5016566;28;20021;-74
2023/12/08 12:21:08;;;;;;;16.42;10.85;;;1.80;99.90;;;;;;5006629;28;20037;-74
2023/12/08 12:23:37;;;;;;;19.48;11.93;;;1.90;99.90;;;;;;5014302;28;20036;-74
2023/12/08 12:26:09;;;;;;;18.75;10.15;;;1.90;99.90;;;;;;5005814;28;20387;-74
2023/12/08 12:28:34;;;;;;;17.42;10.68;;;1.90;99.90;;;;;;5028701;28;20028;-74
2023/12/08 12:31:00;;;;;;;18.65;11.20;;;2.00;99.90;;;;;;5041035;28;20045;-74
2023/12/08 12:33:29;;;;;;;18.20;9.80;;;2.00;99.90;;;;;;5027943;28;20036;-74
2023/12/08 12:35:58;;;;;;;19.08;10.05;;;2.00;99.90;;;;;;5033137;28;20136;-74
2023/12/08 12:38:29;;;;;;;21.00;10.77;;;2.10;99.90;;;;;;5026833;28;20041;-74
2023/12/08 12:40:55;;;;;;;17.42;11.13;;;2.10;99.90;;;;;;5028144;28;20525;-74
2023/12/08 12:43:24;;;;;;;20.27;10.40;;;2.10;99.90;;;;;;5027491;28;20083;-74
2023/12/08 12:45:51;;;;;;;;;;;2.10;99.90;;;;;;5032812;28;20041;-75
2023/12/08 12:48:22;;;;;;;21.40;9.70;;;2.20;99.90;;;;;;5026953;28;19921;-75
2023/12/08 12:50:49;;;;;;;19.00;10.88;;;2.20;99.90;;;;;;5024175;28;20065;-75
2023/12/08 12:53:16;;;;;;;17.98;9.82;;;2.20;99.90;;;;;;5026007;28;20485;-75
2023/12/08 12:55:42;;;;;;;17.42;10.82;;;2.20;99.90;;;;;;5027771;28;20105;-75
2023/12/08 12:58:26;;;;;;;19.13;10.52;;;2.20;99.90;;;;;;5027091;28;20030;-75
2023/12/08 13:00:51;;;;;;;18.92;10.88;;;2.30;99.90;;;;;;5030431;28;20025;-75
2023/12/08 13:03:19;;;;;;;16.20;10.38;;;2.20;99.90;;;;;;5025859;28;20540;-74
2023/12/08 13:05:55;;;;;;;12.90;9.37;;;2.20;99.90;;;;;;5028848;28;20026;-74
2023/12/08 13:08:21;;;;;;;17.80;9.93;;;2.10;99.90;;;;;;5025260;28;20034;-74
2023/12/08 13:10:50;;;;;;;18.13;11.18;;;2.00;99.90;;;;;;5021499;28;20028;-74
2023/12/08 13:13:16;;;;;;;18.08;10.88;;;2.00;99.90;;;;;;5031370;28;20100;-74
2023/12/08 13:15:42;;;;;;;18.27;11.02;;;2.00;99.90;;;;;;5023411;28;20071;-74
2023/12/08 13:18:08;;;;;;;15.73;11.40;;;2.00;99.90;;;;;;5026486;28;20371;-74
2023/12/08 13:20:37;;;;;;;20.70;11.65;;;2.00;99.90;;;;;;5022406;28;20170;-75
2023/12/08 13:23:03;;;;;;;17.50;11.68;;;2.00;99.90;;;;;;5033735;28;20021;-72
2023/12/08 13:25:30;;;;;;;19.90;12.43;;;2.20;99.90;;;;;;5022680;28;20021;-74
2023/12/08 13:27:55;;;;;;;22.42;12.60;;;2.20;99.90;;;;;;5002718;28;20097;-74
2023/12/08 13:30:21;;;;;;;22.60;12.68;;;2.10;99.90;;;;;;5021503;28;20561;-75
2023/12/08 13:32:47;;;;;;;25.00;14.40;;;2.20;99.90;;;;;;5027207;28;20387;-75
2023/12/08 13:35:12;;;;;;;22.90;14.05;;;2.20;99.90;;;;;;5028124;28;20322;-75
2023/12/08 13:37:38;;;;;;;28.38;16.85;;;2.20;99.90;;;;;;5023892;28;20427;-75
2023/12/08 13:40:04;;;;;;;31.80;15.32;;;2.20;99.90;;;;;;5008663;28;20041;-75
2023/12/08 13:42:30;;;;;;;23.67;13.10;;;2.30;99.90;;;;;;5021609;28;20032;-75
2023/12/08 13:44:56;;;;;;;27.40;14.05;;;2.30;99.90;;;;;;5023281;28;20427;-75
2023/12/08 13:47:22;;;;;;;24.17;13.02;;;2.30;99.90;;;;;;5005147;28;20033;-74
2023/12/08 13:49:49;;;;;;;21.88;13.00;;;2.30;99.90;;;;;;5025639;28;20026;-75
2023/12/08 13:52:15;;;;;;;28.48;13.95;;;2.40;99.90;;;;;;5019519;28;20257;-75
2023/12/08 13:54:40;;;;;;;34.50;13.73;;;2.30;99.90;;;;;;5027263;28;20036;-75
2023/12/08 13:57:06;;;;;;;21.02;10.93;;;2.40;99.90;;;;;;5027964;28;20034;-75
2023/12/08 13:59:33;;;;;;;26.17;12.38;;;2.30;99.90;;;;;;5028767;28;20029;-75
2023/12/08 14:01:59;;;;;;;21.70;11.68;;;2.40;99.90;;;;;;5024736;28;20029;-75
2023/12/08 14:04:25;;;;;;;19.65;11.73;;;2.40;99.90;;;;;;5029339;28;20625;-75
2023/12/08 14:06:51;;;;;;;19.08;11.52;;;2.40;99.90;;;;;;5025239;28;20039;-75
2023/12/08 14:09:17;;;;;;;19.88;11.40;;;2.40;99.90;;;;;;5029104;28;20041;-75
2023/12/08 14:11:43;;;;;;;20.75;11.30;;;2.30;99.90;;;;;;5032318;28;20242;-75
2023/12/08 14:14:09;;;;;;;27.33;10.93;;;2.30;99.90;;;;;;5033352;28;20475;-75
2023/12/08 14:16:35;;;;;;;31.48;12.80;;;2.30;99.90;;;;;;5029306;28;20014;-75
2023/12/08 14:19:01;;;;;;;18.90;10.63;;;2.40;99.90;;;;;;5033369;28;20028;-77
2023/12/08 14:21:27;;;;;;;23.23;11.85;;;2.30;99.90;;;;;;5038396;28;20018;-75
2023/12/08 14:23:53;;;;;;;22.35;12.93;;;2.30;99.90;;;;;;5037628;28;20568;-75
2023/12/08 14:26:19;;;;;;;26.13;13.95;;;2.30;99.90;;;;;;5040159;28;20029;-74
2023/12/08 14:28:44;;;;;;;22.48;14.50;;;2.30;99.90;;;;;;5038421;28;20037;-75
2023/12/08 14:31:10;;;;;;;26.70;13.77;;;2.30;99.90;;;;;;5022983;28;20069;-75
2023/12/08 14:33:36;;;;;;;21.98;12.30;;;2.30;99.90;;;;;;5020494;28;20017;-75
2023/12/08 14:36:02;;;;;;;25.63;13.48;;;2.30;99.90;;;;;;5032549;28;20021;-75
2023/12/08 14:38:27;;;;;;;21.63;12.32;;;2.20;99.90;;;;;;5037857;28;20029;-75
2023/12/08 14:40:53;;;;;;;23.50;13.15;;;2.20;99.90;;;;;;5022379;28;20025;-75
2023/12/08 14:43:19;;;;;;;25.60;13.25;;;2.30;99.90;;;;;;5021632;28;20021;-75
2023/12/08 14:45:45;;;;;;;19.85;12.70;;;2.30;99.90;;;;;;5019176;28;20037;-75
2023/12/08 14:48:10;;;;;;;20.58;12.27;;;2.30;99.90;;;;;;5034486;28;20089;-75
2023/12/08 14:50:37;;;;;;;22.88;13.38;;;2.30;99.90;;;;;;5029022;28;20530;-75
2023/12/08 14:53:03;;;;;;;25.52;13.88;;;2.30;99.90;;;;;;5039494;28;20028;-75
2023/12/08 14:55:29;;;;;;;22.83;13.35;;;2.30;99.90;;;;;;5037229;28;20068;-76
2023/12/08 14:57:54;;;;;;;19.25;14.07;;;2.30;99.90;;;;;;5024576;28;20028;-75
2023/12/08 15:00:21;;;;;;;20.08;12.88;;;2.30;99.90;;;;;;5023239;28;20264;-75
2023/12/08 15:02:46;;;;;;;22.88;14.65;;;2.30;99.90;;;;;;5041020;28;20033;-75
2023/12/08 15:05:12;;;;;;;22.67;13.90;;;2.30;99.90;;;;;;5021287;28;20037;-76
2023/12/08 15:07:38;;;;;;;23.25;13.70;;;2.30;99.90;;;;;;5041265;28;20021;-75
2023/12/08 15:10:04;;;;;;;24.48;14.07;;;2.30;99.90;;;;;;5024588;28;20025;-75
2023/12/08 15:12:30;;;;;;;20.92;14.13;;;2.30;99.90;;;;;;5040716;28;20076;-75
2023/12/08 15:14:56;;;;;;;29.15;15.10;;;2.30;99.90;;;;;;5023278;28;20085;-76
2023/12/08 15:17:22;;;;;;;27.83;15.52;;;2.30;99.90;;;;;;5031385;28;20017;-76
2023/12/08 15:19:50;;;;;;;25.20;14.60;;;2.30;99.90;;;;;;5025757;28;20026;-76
2023/12/08 15:22:16;;;;;;;25.20;15.18;;;2.20;99.90;;;;;;5033154;28;20017;-76
2023/12/08 15:24:42;;;;;;;24.35;14.40;;;2.20;99.90;;;;;;5024954;28;20044;-77
2023/12/08 15:27:07;;;;;;;26.58;14.30;;;2.20;99.90;;;;;;5039159;28;20100;-75
2023/12/08 15:29:33;;;;;;;27.40;16.38;;;2.20;99.90;;;;;;5033718;28;20546;-75
2023/12/08 15:31:59;;;;;;;29.52;15.50;;;2.20;99.90;;;;;;5034635;28;20036;-76
2023/12/08 15:34:24;;;;;;;29.73;16.23;;;2.20;99.90;;;;;;5031563;28;20052;-75
2023/12/08 15:36:50;;;;;;;29.00;16.30;;;2.20;99.90;;;;;;5015019;28;20360;-74
2023/12/08 15:39:15;;;;;;;32.00;17.50;;;2.20;99.90;;;;;;5017233;28;20021;-75
2023/12/08 15:41:44;;;;;;;27.60;15.73;;;2.30;99.90;;;;;;5032026;28;20033;-75
2023/12/08 15:44:10;;;;;;;29.30;15.95;;;2.20;99.90;;;;;;5005490;28;20128;-75
2023/12/08 15:46:36;;;;;;;25.98;15.60;;;2.30;99.90;;;;;;5026284;28;20064;-75
2023/12/08 15:49:03;;;;;;;23.35;14.55;;;2.30;99.90;;;;;;5019838;28;20025;-75
2023/12/08 15:51:28;;;;;;;30.73;15.70;;;2.30;99.90;;;;;;5022168;28;20030;-74
2023/12/08 15:54:02;;;;;;;29.42;16.55;;;2.30;99.90;;;;;;5036370;28;20089;-75
2023/12/08 15:56:28;;;;;;;29.35;15.63;;;2.30;99.90;;;;;;5019261;28;20033;-75
2023/12/08 15:58:56;;;;;;;26.85;15.75;;;2.30;99.90;;;;;;5028488;28;20105;-75
2023/12/08 16:01:22;;;;;;;32.97;16.27;;;2.40;99.90;;;;;;5010689;28;20055;-75
2023/12/08 16:03:47;;;;;;;24.40;15.60;;;2.30;99.90;;;;;;5037156;28;20049;-74
2023/12/08 16:06:14;;;;;;;28.95;14.57;;;2.30;99.90;;;;;;5020358;28;20033;-77
2023/12/08 16:08:42;;;;;;;26.75;15.20;;;2.40;99.90;;;;;;5034298;28;20021;-75
2023/12/08 16:11:07;;;;;;;24.35;13.98;;;2.30;99.90;;;;;;5013852;28;20029;-76
2023/12/08 16:13:39;;;;;;;26.80;15.68;;;2.30;99.90;;;;;;5030707;28;20021;-76
2023/12/08 16:16:06;;;;;;;24.38;15.80;;;2.30;99.90;;;;;;5016721;28;20029;-76
2023/12/08 16:18:32;;;;;;;26.50;16.23;;;2.30;99.90;;;;;;5015107;28;20052;-76
2023/12/08 16:20:58;;;;;;;26.88;13.25;;;2.20;99.90;;;;;;5033698;28;20017;-74
2023/12/08 16:23:23;;;;;;;22.33;14.05;;;2.20;99.90;;;;;;5032467;28;20045;-75
2023/12/08 16:25:49;;;;;;;17.00;12.43;;;2.20;99.90;;;;;;5026461;28;20036;-75